Time;durP1;ratioP1;P1;durP2;ratioP2;P2;SDS_P1;SDS_P2;PMS_P1;PMS_P2;Temp;Humidity;BMP_temperature;BMP_pressure;BME280_temperature;BME280_humidity;BME280_pressure;Samples;Min_cycle;Max_cycle;Signal;HPM_P1;HPM_P2
2021/07/16 17:16:10;;;;;;;3.45;0.77;;;;;;;25.72;50.86;98976.13;5108346;27;20199;-78
2021/07/16 17:18:35;;;;;;;1.10;0.98;;;;;;;25.25;49.62;98970.00;5094560;28;20508;-78
2021/07/16 17:21:01;;;;;;;0.73;0.73;;;;;;;25.77;50.24;98975.81;5094158;28;20051;-78
2021/07/16 17:23:27;;;;;;;5.30;0.88;;;;;;;26.30;48.43;98976.06;5094420;28;20048;-78
2021/07/16 17:25:53;;;;;;;1.02;0.60;;;;;;;26.46;49.09;98975.75;5092553;28;20361;-79
2021/07/16 17:28:18;;;;;;;1.13;1.05;;;;;;;25.72;50.69;98980.59;5094204;28;20032;-79
2021/07/16 17:30:44;;;;;;;1.10;1.00;;;;;;;25.41;52.06;98980.31;5094415;28;20119;-79
2021/07/16 17:33:09;;;;;;;2.92;0.98;;;;;;;24.95;52.89;98980.19;5094119;28;20062;-77
2021/07/16 17:35:34;;;;;;;0.90;0.80;;;;;;;24.79;54.01;98986.63;5092646;28;20082;-77
2021/07/16 17:38:00;;;;;;;2.70;0.93;;;;;;;24.93;53.34;98980.31;5094038;28;20065;-77
2021/07/16 17:40:28;;;;;;;1.73;1.00;;;;;;;24.50;54.84;99001.16;5092835;28;21029;-77
2021/07/16 17:42:54;;;;;;;1.13;0.77;;;;;;;24.07;56.66;98994.41;5093922;28;20034;-77
2021/07/16 17:45:22;;;;;;;1.00;1.00;;;;;;;24.07;56.60;98993.56;5093885;28;20765;-77
2021/07/16 17:47:48;;;;;;;5.63;1.20;;;;;;;23.94;56.94;98992.75;5104080;28;20032;-77
2021/07/16 17:50:17;;;;;;;1.17;0.90;;;;;;;24.46;54.94;98989.06;5094149;28;20504;-77
2021/07/16 17:52:42;;;;;;;4.00;1.02;;;;;;;23.99;56.77;98993.28;5093550;28;20028;-77
2021/07/16 17:55:09;;;;;;;0.80;0.80;;;;;;;23.80;56.24;98991.88;5092436;28;20645;-77
2021/07/16 17:57:35;;;;;;;4.18;0.85;;;;;;;23.64;57.01;98991.22;5093929;28;20024;-77
2021/07/16 18:00:05;;;;;;;1.30;0.73;;;;;;;23.92;56.31;98992.81;5093603;28;20028;-77
2021/07/16 18:02:31;;;;;;;1.20;0.82;;;;;;;23.89;57.12;98994.88;5092411;28;20024;-77
2021/07/16 18:04:56;;;;;;;2.13;1.10;;;;;;;23.58;57.50;98995.09;5103876;28;20393;-76
2021/07/16 18:07:22;;;;;;;3.83;1.15;;;;;;;23.58;59.05;98996.91;5093336;28;20035;-77
2021/07/16 18:09:47;;;;;;;3.33;1.00;;;;;;;23.42;60.48;98998.91;5093582;28;20051;-77
2021/07/16 18:12:12;;;;;;;4.95;1.30;;;;;;;23.02;63.09;98993.63;5092436;28;20046;-77
2021/07/16 18:14:38;;;;;;;3.90;1.60;;;;;;;22.82;63.87;98998.38;5093178;28;20036;-77
2021/07/16 18:17:03;;;;;;;1.88;1.10;;;;;;;22.61;64.95;98994.47;5092131;28;20055;-77
2021/07/16 18:19:33;;;;;;;3.03;1.33;;;;;;;22.40;65.95;98995.84;5093379;28;20032;-77
2021/07/16 18:22:05;;;;;;;1.48;0.88;;;;;;;22.20;67.25;99007.63;5099189;28;20124;-78
2021/07/16 18:24:30;;;;;;;1.90;1.58;;;;;;;22.32;65.56;99005.06;5091870;28;20107;-77
2021/07/16 18:26:57;;;;;;;5.05;2.80;;;;;;;22.31;65.38;99008.66;5093154;28;20506;-77
2021/07/16 18:29:23;;;;;;;4.55;2.67;;;;;;;22.32;66.31;99010.34;5079536;28;20053;-77
2021/07/16 18:31:51;;;;;;;3.05;2.75;;;;;;;22.21;66.88;99015.44;5079450;28;20032;-77
2021/07/16 18:34:18;;;;;;;3.60;3.28;;;;;;;22.01;67.92;99010.53;5079479;28;20028;-77
2021/07/16 18:36:43;;;;;;;6.00;3.20;;;;;;;21.97;68.16;99019.56;5079194;28;20028;-77
2021/07/16 18:39:08;;;;;;;3.65;3.35;;;;;;;22.00;68.02;99014.06;5079505;28;20434;-76
2021/07/16 18:41:34;;;;;;;3.85;3.33;;;;;;;22.00;68.38;99019.34;5027930;27;20052;-76
2021/07/16 18:44:00;;;;;;;9.38;4.10;;;;;;;21.79;69.51;99021.50;5025781;28;20047;-78
2021/07/16 18:46:25;;;;;;;8.73;4.50;;;;;;;21.62;70.31;99017.25;5063186;28;20021;-78
2021/07/16 18:48:51;;;;;;;8.38;4.10;;;;;;;21.54;70.06;99030.03;5014366;28;21001;-77
2021/07/16 18:51:17;;;;;;;5.95;4.10;;;;;;;21.58;71.23;99028.91;5060922;28;20039;-77
2021/07/16 18:53:43;;;;;;;4.82;4.00;;;;;;;21.45;70.70;99038.50;5045159;28;20028;-77
2021/07/16 18:56:09;;;;;;;4.50;4.05;;;;;;;21.25;71.33;99040.44;5037368;28;20047;-77
2021/07/16 18:58:34;;;;;;;4.20;3.90;;;;;;;21.24;71.85;99041.41;5043985;28;20033;-77
2021/07/16 19:01:00;;;;;;;4.22;3.85;;;;;;;21.13;71.99;99042.94;5041281;28;20052;-77
2021/07/16 19:03:26;;;;;;;4.22;3.83;;;;;;;21.07;72.74;99043.28;5049964;28;21058;-77
2021/07/16 19:05:52;;;;;;;6.05;4.35;;;;;;;20.93;73.16;99041.44;5019465;28;20048;-77
2021/07/16 19:08:17;;;;;;;4.25;3.60;;;;;;;20.76;73.98;99051.13;5051532;28;20024;-77
2021/07/16 19:10:43;;;;;;;3.65;3.35;;;;;;;20.72;74.18;99054.84;5030359;28;20046;-78
2021/07/16 19:13:08;;;;;;;4.97;3.38;;;;;;;20.69;73.97;99057.66;5034100;28;20028;-83
2021/07/16 19:15:34;;;;;;;4.32;3.88;;;;;;;20.73;73.77;99061.81;5034190;28;20048;-80
2021/07/16 19:18:00;;;;;;;4.80;2.83;;;;;;;20.62;74.13;99080.00;5046997;28;20339;-76
2021/07/16 19:20:27;;;;;;;6.65;3.88;;;;;;;20.75;74.17;99080.19;5048917;28;20114;-77
2021/07/16 19:22:53;;;;;;;6.15;3.38;;;;;;;20.74;74.20;99079.34;5047921;28;20033;-75
2021/07/16 19:25:19;;;;;;;3.67;3.35;;;;;;;20.65;74.85;99074.56;5047416;28;20102;-75
2021/07/16 19:27:44;;;;;;;4.25;3.65;;;;;;;20.45;78.19;99087.91;5046756;28;20120;-75
2021/07/16 19:30:10;;;;;;;6.00;4.40;;;;;;;20.10;81.96;99093.25;5047409;28;20071;-75
2021/07/16 19:32:35;;;;;;;7.32;4.20;;;;;;;19.82;83.85;99096.44;5047804;28;20040;-75
2021/07/16 19:35:01;;;;;;;7.65;4.50;;;;;;;19.54;88.04;99104.84;5047783;28;20033;-75
2021/07/16 19:37:26;;;;;;;7.80;5.25;;;;;;;19.40;90.42;99117.81;5046472;28;20098;-75
2021/07/16 19:39:53;;;;;;;8.93;5.68;;;;;;;19.18;90.70;99124.06;5050193;28;20029;-75
2021/07/16 19:42:19;;;;;;;8.23;6.88;;;;;;;19.00;95.22;99124.94;5048140;28;20024;-75
2021/07/16 19:44:45;;;;;;;11.30;7.05;;;;;;;18.94;96.50;99138.34;5047622;28;20017;-75
2021/07/16 19:47:11;;;;;;;8.10;7.28;;;;;;;18.91;96.47;99146.41;5048390;28;20036;-75
2021/07/16 19:49:37;;;;;;;20.45;8.52;;;;;;;19.02;97.45;99144.13;5047301;28;20516;-75
2021/07/16 19:52:03;;;;;;;8.32;7.30;;;;;;;18.85;97.43;99136.16;5047117;28;20029;-75
2021/07/16 19:54:28;;;;;;;11.98;9.65;;;;;;;18.81;100.00;99145.09;5047422;28;20057;-75
2021/07/16 19:56:54;;;;;;;12.73;9.60;;;;;;;18.82;100.00;99138.94;5039980;28;20433;-75
2021/07/16 19:59:19;;;;;;;34.30;18.75;;;;;;;18.88;100.00;99143.91;5033052;28;20026;-75
2021/07/16 20:01:44;;;;;;;11.90;9.70;;;;;;;18.98;100.00;99150.44;5037038;28;20163;-75
2021/07/16 20:04:10;;;;;;;8.43;7.25;;;;;;;18.98;100.00;99153.06;5046645;28;20021;-75
2021/07/16 20:06:35;;;;;;;9.90;8.02;;;;;;;18.87;100.00;99160.59;5048510;28;20120;-75
2021/07/16 20:09:00;;;;;;;12.88;8.48;;;;;;;18.83;100.00;99159.00;5048955;28;20380;-75
2021/07/16 20:11:26;;;;;;;8.77;7.90;;;;;;;18.83;100.00;99159.88;5068103;22;20028;-70
2021/07/16 20:13:51;;;;;;;10.40;7.40;;;;;;;18.84;100.00;99161.56;5011895;28;20056;-69
2021/07/16 20:16:17;;;;;;;10.60;7.35;;;;;;;18.77;100.00;99160.16;5011377;28;20452;-70
2021/07/16 20:18:42;;;;;;;9.05;8.25;;;;;;;18.70;100.00;99170.06;5011748;28;20036;-71
2021/07/16 20:21:08;;;;;;;7.93;7.13;;;;;;;18.54;100.00;99163.75;5012069;28;20414;-72
2021/07/16 20:23:34;;;;;;;9.60;8.63;;;;;;;18.49;100.00;99168.38;5011807;28;20520;-70
2021/07/16 20:26:05;;;;;;;14.07;8.77;;;;;;;18.50;100.00;99163.03;5009412;28;20619;-71
2021/07/16 20:28:31;;;;;;;10.63;8.80;;;;;;;18.40;100.00;99171.38;5027011;28;20022;-69
2021/07/16 20:30:57;;;;;;;12.60;9.45;;;;;;;18.33;100.00;99170.81;5010620;28;20080;-69
2021/07/16 20:33:23;;;;;;;11.93;10.23;;;;;;;18.30;100.00;99186.69;5011427;28;20041;-69
2021/07/16 20:35:49;;;;;;;11.15;9.90;;;;;;;18.36;100.00;99190.81;5010891;28;20025;-70
2021/07/16 20:38:15;;;;;;;12.82;11.10;;;;;;;18.29;100.00;99192.00;5011352;28;20045;-70
2021/07/16 20:40:41;;;;;;;11.60;10.40;;;;;;;18.31;100.00;99198.88;5010555;28;20120;-70
2021/07/16 20:43:06;;;;;;;11.73;10.52;;;;;;;18.26;100.00;99200.00;5010265;28;20059;-70
2021/07/16 20:45:31;;;;;;;13.27;9.68;;;;;;;18.27;100.00;99201.69;5011220;28;20084;-71
2021/07/16 20:47:57;;;;;;;10.63;9.52;;;;;;;18.17;100.00;99203.84;5010412;28;20030;-72
2021/07/16 20:50:22;;;;;;;15.27;8.70;;;;;;;18.11;100.00;99207.59;5011138;28;20033;-71
2021/07/16 20:52:48;;;;;;;15.60;10.48;;;;;;;17.98;100.00;99201.13;5010274;28;20041;-71
2021/07/16 20:55:14;;;;;;;17.90;10.77;;;;;;;17.92;100.00;99202.25;5011243;28;20033;-69
2021/07/16 20:57:40;;;;;;;16.27;11.57;;;;;;;17.83;100.00;99207.00;5010115;28;21249;-73
2021/07/16 21:00:12;;;;;;;17.20;12.73;;;;;;;17.76;100.00;99210.81;5011166;28;20033;-69
2021/07/16 21:02:38;;;;;;;17.52;12.18;;;;;;;17.70;100.00;99207.50;5011044;28;20058;-72
2021/07/16 21:05:04;;;;;;;13.82;11.95;;;;;;;17.68;100.00;99209.31;5011033;28;20079;-70
2021/07/16 21:07:30;;;;;;;13.30;11.75;;;;;;;17.65;100.00;99209.44;5010897;28;20061;-69
2021/07/16 21:09:55;;;;;;;13.00;11.38;;;;;;;17.69;100.00;99211.00;5011180;28;20044;-69
2021/07/16 21:12:21;;;;;;;13.10;11.70;;;;;;;17.64;100.00;99202.47;5010258;28;20120;-71
2021/07/16 21:14:46;;;;;;;13.45;11.98;;;;;;;17.62;100.00;99214.78;5010633;28;20570;-71
2021/07/16 21:17:14;;;;;;;16.77;11.38;;;;;;;17.51;100.00;99210.91;5010279;28;20030;-71
2021/07/16 21:19:39;;;;;;;17.90;12.32;;;;;;;17.48;100.00;99211.84;5009761;28;20053;-69
2021/07/16 21:22:05;;;;;;;16.05;13.43;;;;;;;17.48;100.00;99211.84;5011071;28;20060;-69
2021/07/16 21:24:31;;;;;;;17.20;13.50;;;;;;;17.36;100.00;99212.34;5009726;28;20112;-70
2021/07/16 21:26:56;;;;;;;15.90;14.30;;;;;;;17.33;100.00;99212.47;5010060;28;20104;-71
2021/07/16 21:29:21;;;;;;;16.92;14.27;;;;;;;17.26;100.00;99216.22;5010888;28;20510;-72
2021/07/16 21:31:47;;;;;;;20.55;14.38;;;;;;;17.21;100.00;99219.00;5012591;28;20037;-72
2021/07/16 21:34:12;;;;;;;21.15;15.27;;;;;;;17.17;100.00;99223.53;5010106;28;20035;-72
2021/07/16 21:36:37;;;;;;;19.13;14.27;;;;;;;17.17;100.00;99223.53;5009468;28;20669;-71
2021/07/16 21:39:04;;;;;;;16.08;14.50;;;;;;;17.21;100.00;99217.25;5009761;28;20061;-72
2021/07/16 21:41:29;;;;;;;17.70;13.98;;;;;;;17.19;100.00;99221.69;5010646;28;20113;-70
2021/07/16 21:43:54;;;;;;;16.52;14.82;;;;;;;17.22;100.00;99223.34;5010884;28;20108;-70
2021/07/16 21:46:20;;;;;;;17.80;13.48;;;;;;;17.25;100.00;99222.38;5009589;28;20037;-69
2021/07/16 21:48:45;;;;;;;16.95;14.35;;;;;;;17.15;100.00;99214.84;5010820;28;20113;-72
2021/07/16 21:51:11;;;;;;;15.50;12.98;;;;;;;17.17;100.00;99222.69;5011465;28;20159;-69
2021/07/16 21:53:36;;;;;;;15.10;13.60;;;;;;;17.18;100.00;99230.47;5010755;28;20033;-68
2021/07/16 21:56:02;;;;;;;17.13;12.95;;;;;;;17.20;100.00;99233.88;5010445;28;20083;-69
2021/07/16 21:58:32;;;;;;;17.77;13.80;;;;;;;17.20;100.00;99225.16;5010583;28;20025;-68
2021/07/16 22:00:58;;;;;;;14.20;12.70;;;;;;;17.24;100.00;99228.53;5011230;28;20448;-70
2021/07/16 22:03:23;;;;;;;17.85;14.05;;;;;;;17.27;100.00;99225.81;5014147;28;20042;-72
2021/07/16 22:05:49;;;;;;;16.05;13.27;;;;;;;17.32;100.00;99234.34;5013530;28;20116;-70
2021/07/16 22:08:14;;;;;;;14.15;12.75;;;;;;;17.40;100.00;99234.88;5014141;28;20029;-70
2021/07/16 22:10:40;;;;;;;17.67;13.40;;;;;;;17.33;100.00;99238.66;5013515;28;20068;-70
2021/07/16 22:13:05;;;;;;;15.85;12.38;;;;;;;17.27;100.00;99234.50;5013853;28;21420;-70
2021/07/16 22:15:30;;;;;;;21.17;14.88;;;;;;;17.20;100.00;99238.25;5013881;28;20572;-70
2021/07/16 22:17:56;;;;;;;15.23;13.65;;;;;;;17.25;100.00;99240.69;5013677;28;20397;-70
2021/07/16 22:20:21;;;;;;;15.73;14.13;;;;;;;17.19;100.00;99241.78;5014098;28;20407;-70
2021/07/16 22:22:48;;;;;;;20.70;14.05;;;;;;;17.17;100.00;99234.00;5012863;28;20417;-70
2021/07/16 22:25:14;;;;;;;14.70;13.20;;;;;;;17.18;100.00;99224.38;5014741;28;20030;-70
2021/07/16 22:27:39;;;;;;;17.75;14.80;;;;;;;17.17;100.00;99223.53;5013665;28;20109;-70
2021/07/16 22:30:06;;;;;;;21.40;15.70;;;;;;;17.19;100.00;99226.94;5013679;28;20474;-70
2021/07/16 22:32:32;;;;;;;22.25;16.33;;;;;;;17.14;100.00;99228.88;5014940;28;20113;-70
2021/07/16 22:34:57;;;;;;;21.83;16.77;;;;;;;17.16;100.00;99228.81;5014643;28;20117;-70
2021/07/16 22:37:22;;;;;;;25.23;18.08;;;;;;;17.18;100.00;99227.00;5014640;28;20100;-70
2021/07/16 22:39:48;;;;;;;24.60;17.25;;;;;;;17.16;100.00;99227.06;5014735;28;20034;-70
2021/07/16 22:42:13;;;;;;;20.63;16.33;;;;;;;17.28;100.00;99225.72;5014610;28;20026;-70
2021/07/16 22:44:38;;;;;;;19.65;17.55;;;;;;;17.29;100.00;99223.97;5014582;28;20034;-70
2021/07/16 22:47:04;;;;;;;27.83;18.05;;;;;;;17.22;100.00;99225.97;5014565;28;20109;-70
2021/07/16 22:49:29;;;;;;;22.15;18.33;;;;;;;17.15;100.00;99235.81;5014542;28;20101;-70
2021/07/16 22:51:55;;;;;;;29.35;19.00;;;;;;;17.20;100.00;99228.63;5014549;28;20040;-70
2021/07/16 22:54:20;;;;;;;19.90;17.65;;;;;;;17.14;100.00;99238.50;5014440;28;20025;-70
2021/07/16 22:56:46;;;;;;;20.65;17.90;;;;;;;17.17;100.00;99244.47;5014193;28;20030;-70
2021/07/16 22:59:11;;;;;;;20.88;15.88;;;;;;;17.19;100.00;99242.63;5014393;28;20036;-70
2021/07/16 23:01:37;;;;;;;22.73;19.10;;;;;;;17.13;100.00;99242.88;5014257;28;20030;-70
2021/07/16 23:04:03;;;;;;;22.23;18.25;;;;;;;17.14;100.00;99238.50;5014368;28;20065;-70
2021/07/16 23:06:29;;;;;;;21.17;17.33;;;;;;;17.25;100.00;99248.56;5014134;28;20030;-70
2021/07/16 23:08:54;;;;;;;26.77;16.52;;;;;;;17.21;100.00;99243.47;5014182;28;20072;-70
2021/07/16 23:11:20;;;;;;;23.95;16.63;;;;;;;17.23;100.00;99247.78;5013884;28;20035;-70
2021/07/16 23:13:46;;;;;;;17.13;15.27;;;;;;;17.24;100.00;99244.25;5014102;28;20080;-70
2021/07/16 23:16:11;;;;;;;18.35;16.38;;;;;;;17.13;100.00;99240.25;5014008;28;20033;-70
2021/07/16 23:18:37;;;;;;;22.65;16.77;;;;;;;17.12;100.00;99245.56;5014167;28;20025;-70
2021/07/16 23:21:02;;;;;;;23.98;17.33;;;;;;;17.09;100.00;99248.28;5014018;28;20394;-70
2021/07/16 23:23:27;;;;;;;23.80;18.00;;;;;;;17.05;100.00;99250.16;5013949;28;20084;-70
2021/07/16 23:25:53;;;;;;;20.88;18.33;;;;;;;17.04;100.00;99253.69;5013914;28;20088;-70
2021/07/16 23:28:18;;;;;;;21.40;16.85;;;;;;;17.10;100.00;99253.44;5013661;28;20037;-70
2021/07/16 23:30:45;;;;;;;24.17;18.20;;;;;;;17.09;100.00;99254.38;5013912;28;20022;-70
2021/07/16 23:33:10;;;;;;;24.88;18.25;;;;;;;17.10;100.00;99261.31;5013818;28;20045;-70
2021/07/16 23:35:36;;;;;;;24.15;17.33;;;;;;;17.24;100.00;99259.94;5013809;28;20061;-70
2021/07/16 23:38:01;;;;;;;17.38;14.90;;;;;;;17.25;100.00;99259.88;5013530;28;20026;-70
2021/07/16 23:40:27;;;;;;;17.70;14.77;;;;;;;17.17;100.00;99265.44;5013661;28;20083;-70
2021/07/16 23:42:52;;;;;;;20.08;15.02;;;;;;;17.18;100.00;99261.88;5013484;28;20030;-70
2021/07/16 23:45:18;;;;;;;23.48;16.90;;;;;;;17.23;100.00;99258.25;5013472;28;20087;-70
2021/07/16 23:47:43;;;;;;;18.75;14.52;;;;;;;17.37;100.00;99258.59;5013415;28;20113;-70
2021/07/16 23:50:09;;;;;;;21.60;15.45;;;;;;;17.30;100.00;99264.94;5013477;28;20045;-70
2021/07/16 23:52:34;;;;;;;23.70;17.30;;;;;;;17.48;100.00;99259.03;5013342;28;20022;-70
2021/07/16 23:55:00;;;;;;;26.40;16.92;;;;;;;17.36;100.00;99265.59;5011946;28;20063;-69
2021/07/16 23:57:26;;;;;;;28.45;17.38;;;;;;;17.29;100.00;99273.72;5013309;28;20036;-70
2021/07/16 23:59:52;;;;;;;28.63;18.17;;;;;;;17.38;100.00;99281.25;5013292;28;20391;-70
